Time;durP1;ratioP1;P1;durP2;ratioP2;P2;SDS_P1;SDS_P2;PMS_P1;PMS_P2;Temp;Humidity;BMP_temperature;BMP_pressure;BME280_temperature;BME280_humidity;BME280_pressure;Samples;Min_cycle;Max_cycle;Signal;HPM_P1;HPM_P2
2023/07/02 00:02:24;;;;;;;;;;;18.00;81.40;;;;;;5000359;28;20380;-84
2023/07/02 00:04:49;;;;;;;;;;;18.10;81.30;;;;;;5008997;28;19925;-82
2023/07/02 00:07:15;;;;;;;;;;;18.10;80.90;;;;;;5010750;28;19928;-84
2023/07/02 00:09:41;;;;;;;;;;;18.10;80.60;;;;;;5009969;28;20027;-82
2023/07/02 00:12:06;;;;;;;;;;;18.10;80.90;;;;;;5012099;28;19931;-82
2023/07/02 00:14:32;;;;;;;;;;;18.10;80.60;;;;;;5010303;28;19971;-82
2023/07/02 00:16:58;;;;;;;;;;;18.10;80.70;;;;;;5010757;28;19916;-83
2023/07/02 00:19:26;;;;;;;;;;;18.10;80.60;;;;;;5004969;28;19968;-82
2023/07/02 00:21:53;;;;;;;;;;;18.10;81.00;;;;;;4993914;28;19914;-80
2023/07/02 00:24:18;;;;;;;;;;;18.10;80.90;;;;;;5005002;28;19918;-83
2023/07/02 00:26:44;;;;;;;;;;;18.00;80.90;;;;;;5018576;28;20364;-83
2023/07/02 00:29:10;;;;;;;;;;;18.10;80.90;;;;;;5011046;28;20301;-81
2023/07/02 00:31:35;;;;;;;;;;;18.10;81.10;;;;;;5019740;28;19913;-82
2023/07/02 00:34:01;;;;;;;;;;;18.00;81.10;;;;;;5020564;28;20240;-82
2023/07/02 00:36:27;;;;;;;;;;;18.10;81.10;;;;;;5012759;28;20007;-82
2023/07/02 00:38:52;;;;;;;;;;;18.10;81.00;;;;;;5006696;28;19914;-81
2023/07/02 00:44:12;;;;;;;;;;;18.00;81.20;;;;;;5127797;22;19980;-81
2023/07/02 00:46:41;;;;;;;;;;;18.10;80.70;;;;;;4995851;28;20016;-82
2023/07/02 00:49:07;;;;;;;;;;;18.10;80.60;;;;;;5002843;28;19933;-81
2023/07/02 00:51:33;;;;;;;;;;;18.00;80.50;;;;;;4989227;28;19922;-83
2023/07/02 00:53:59;;;;;;;;;;;18.00;80.80;;;;;;4972404;28;20021;-82
2023/07/02 00:56:32;;;;;;;;;;;18.00;80.50;;;;;;4988262;28;20008;-83
2023/07/02 00:58:58;;;;;;;;;;;17.90;80.90;;;;;;4974512;28;19976;-82
2023/07/02 01:01:28;;;;;;;;;;;18.00;80.40;;;;;;5003026;28;20005;-82
2023/07/02 01:03:55;;;;;;;;;;;18.00;80.40;;;;;;4962767;28;19914;-81
2023/07/02 01:06:25;;;;;;;;;;;18.10;80.00;;;;;;4986898;28;20015;-83
2023/07/02 01:08:54;;;;;;;;;;;18.10;79.80;;;;;;4972864;28;20250;-82
2023/07/02 01:11:21;;;;;;;;;;;18.10;79.40;;;;;;4973961;28;19910;-82
2023/07/02 01:13:47;;;;;;;;;;;18.00;79.90;;;;;;4971738;28;19925;-82
2023/07/02 01:16:12;;;;;;;;;;;18.00;79.90;;;;;;4982023;28;19914;-82
2023/07/02 01:18:38;;;;;;;;;;;18.10;79.70;;;;;;4984370;28;19964;-82
2023/07/02 01:21:06;;;;;;;;;;;18.10;79.80;;;;;;4969962;28;19914;-82
2023/07/02 01:23:33;;;;;;;;;;;18.10;79.30;;;;;;4980038;28;20003;-83
2023/07/02 01:25:59;;;;;;;;;;;18.00;79.80;;;;;;4971716;28;19914;-81
2023/07/02 01:28:25;;;;;;;;;;;17.90;80.00;;;;;;4975370;28;20328;-82
2023/07/02 01:30:50;;;;;;;;;;;17.90;79.40;;;;;;4971728;28;19940;-81
2023/07/02 01:33:16;;;;;;;;;;;17.70;80.20;;;;;;4979076;28;19915;-81
2023/07/02 01:35:41;;;;;;;;;;;17.70;80.10;;;;;;4988455;28;19985;-82
2023/07/02 01:38:07;;;;;;;;;;;17.60;80.10;;;;;;5064153;23;20401;-78
2023/07/02 01:40:32;;;;;;;;;;;17.60;80.30;;;;;;5081909;28;19912;-81
2023/07/02 01:42:58;;;;;;;;;;;17.50;80.70;;;;;;5094046;28;19918;-78
2023/07/02 01:45:23;;;;;;;;;;;17.50;80.50;;;;;;5083999;28;19915;-79
2023/07/02 01:47:49;;;;;;;;;;;17.50;80.40;;;;;;5090689;28;19916;-78
2023/07/02 01:50:14;;;;;;;;;;;17.50;80.20;;;;;;5081538;28;20665;-78
2023/07/02 01:52:40;;;;;;;;;;;17.50;80.30;;;;;;5087694;28;20002;-78
2023/07/02 01:55:05;;;;;;;;;;;17.30;80.80;;;;;;5097212;28;19912;-79
2023/07/02 01:57:31;;;;;;;;;;;17.30;81.10;;;;;;5089230;28;19984;-78
2023/07/02 01:59:57;;;;;;;;;;;17.30;81.10;;;;;;5079016;28;20371;-78
2023/07/02 02:02:22;;;;;;;;;;;17.50;80.50;;;;;;5070609;28;19937;-79
2023/07/02 02:04:48;;;;;;;;;;;17.50;80.50;;;;;;5093802;28;19980;-79
2023/07/02 02:07:13;;;;;;;;;;;17.60;80.20;;;;;;5094948;28;19908;-77
2023/07/02 02:09:39;;;;;;;;;;;17.50;80.20;;;;;;5094519;28;20306;-79
2023/07/02 02:12:04;;;;;;;;;;;17.60;79.80;;;;;;5086458;28;19999;-79
2023/07/02 02:14:30;;;;;;;;;;;17.60;79.80;;;;;;5090747;28;19912;-78
2023/07/02 02:16:55;;;;;;;;;;;17.60;79.60;;;;;;5104980;28;19912;-78
2023/07/02 02:19:21;;;;;;;;;;;17.50;79.50;;;;;;5093951;28;19916;-79
2023/07/02 02:21:46;;;;;;;;;;;17.40;80.10;;;;;;5094585;28;19916;-78
2023/07/02 02:24:12;;;;;;;;;;;17.50;79.80;;;;;;5070128;28;19947;-78
2023/07/02 02:26:38;;;;;;;;;;;17.40;80.20;;;;;;5094170;28;19909;-77
2023/07/02 02:29:03;;;;;;;;;;;17.50;79.60;;;;;;5115922;22;20042;-86
2023/07/02 02:31:29;;;;;;;;;;;17.40;79.20;;;;;;5075482;28;19916;-86
2023/07/02 02:33:55;;;;;;;;;;;17.30;79.30;;;;;;5070883;28;19920;-86
2023/07/02 02:36:20;;;;;;;;;;;17.50;79.00;;;;;;5074589;28;19977;-86
2023/07/02 02:38:46;;;;;;;;;;;17.50;78.80;;;;;;5084645;28;19916;-85
2023/07/02 02:41:11;;;;;;;;;;;17.30;78.80;;;;;;5108923;28;19907;-86
2023/07/02 02:43:37;;;;;;;;;;;17.30;79.20;;;;;;5108524;28;20437;-86
2023/07/02 02:46:02;;;;;;;;;;;17.30;78.70;;;;;;5112802;28;19916;-86
2023/07/02 02:48:28;;;;;;;;;;;17.40;78.40;;;;;;5108288;28;19912;-86
2023/07/02 02:50:53;;;;;;;;;;;17.30;78.30;;;;;;5130926;27;19933;-87
2023/07/02 02:53:18;;;;;;;;;;;17.30;78.40;;;;;;5113608;28;19961;-86
2023/07/02 02:55:44;;;;;;;;;;;17.30;78.20;;;;;;5093933;28;20554;-86
2023/07/02 02:58:09;;;;;;;;;;;17.20;78.40;;;;;;5108733;27;19923;-86
2023/07/02 03:00:35;;;;;;;;;;;17.20;78.20;;;;;;5091712;28;19912;-86
2023/07/02 03:03:01;;;;;;;;;;;17.30;77.50;;;;;;5099125;27;19915;-86
2023/07/02 03:05:26;;;;;;;;;;;17.30;77.70;;;;;;5079606;28;20527;-86
2023/07/02 03:07:51;;;;;;;;;;;17.30;77.40;;;;;;5087589;28;19920;-86
2023/07/02 03:10:17;;;;;;;;;;;17.30;77.50;;;;;;5092702;28;19918;-86
2023/07/02 03:12:43;;;;;;;;;;;17.30;77.60;;;;;;5096286;28;19918;-86
2023/07/02 03:15:09;;;;;;;;;;;17.20;77.60;;;;;;5086302;28;19916;-86
2023/07/02 03:17:34;;;;;;;;;;;17.20;77.40;;;;;;5088662;28;19927;-86
2023/07/02 03:20:00;;;;;;;;;;;17.20;77.60;;;;;;5085967;28;19916;-85
2023/07/02 03:22:25;;;;;;;;;;;17.30;77.40;;;;;;5104652;27;19912;-85
2023/07/02 03:24:51;;;;;;;;;;;17.20;77.10;;;;;;5085175;28;20155;-85
2023/07/02 03:27:16;;;;;;;;;;;17.10;77.60;;;;;;5087351;28;20416;-85
2023/07/02 03:29:42;;;;;;;;;;;17.10;77.50;;;;;;5113653;28;19964;-86
2023/07/02 03:32:07;;;;;;;;;;;17.10;77.80;;;;;;5128378;27;20289;-86
2023/07/02 03:34:33;;;;;;;;;;;17.10;77.60;;;;;;5085950;28;20014;-85
2023/07/02 03:36:58;;;;;;;;;;;17.10;77.60;;;;;;5083644;28;19912;-86
2023/07/02 03:39:24;;;;;;;;;;;17.10;77.60;;;;;;5089538;28;20415;-86
2023/07/02 03:41:49;;;;;;;;;;;17.30;77.30;;;;;;5117079;27;19908;-86
2023/07/02 03:44:15;;;;;;;;;;;17.20;77.30;;;;;;5095762;28;20304;-86
2023/07/02 03:46:40;;;;;;;;;;;17.20;77.30;;;;;;5090531;28;20392;-85
2023/07/02 03:49:06;;;;;;;;;;;17.30;77.10;;;;;;5097184;28;19912;-86
2023/07/02 03:51:31;;;;;;;;;;;17.30;77.00;;;;;;5096074;28;19931;-86
2023/07/02 03:53:58;;;;;;;;;;;17.20;77.20;;;;;;5101258;28;19975;-86
2023/07/02 03:56:24;;;;;;;;;;;17.30;77.20;;;;;;5094137;28;19908;-85
2023/07/02 03:58:49;;;;;;;;;;;17.20;77.20;;;;;;5106526;28;19942;-86
2023/07/02 04:01:15;;;;;;;;;;;17.10;77.40;;;;;;5109953;27;19973;-86
2023/07/02 04:03:42;;;;;;;;;;;17.10;77.70;;;;;;5113101;28;19923;-86
2023/07/02 04:06:07;;;;;;;;;;;17.10;77.70;;;;;;5092659;28;19912;-86
2023/07/02 04:08:34;;;;;;;;;;;17.10;77.90;;;;;;5090739;28;19946;-85
2023/07/02 04:10:59;;;;;;;;;;;17.10;78.10;;;;;;5098146;28;20389;-86
2023/07/02 04:13:25;;;;;;;;;;;17.10;78.20;;;;;;5088850;28;19912;-85
2023/07/02 04:15:50;;;;;;;;;;;17.10;78.00;;;;;;5089311;28;19912;-85
2023/07/02 04:18:15;;;;;;;;;;;17.20;78.00;;;;;;5103516;27;19919;-86
2023/07/02 04:20:41;;;;;;;;;;;17.20;77.50;;;;;;5086208;28;19918;-86
2023/07/02 04:23:06;;;;;;;;;;;17.20;77.60;;;;;;5086987;28;19919;-86
2023/07/02 04:25:32;;;;;;;;;;;17.20;77.70;;;;;;5089869;28;19920;-86
2023/07/02 04:27:58;;;;;;;;;;;17.20;77.60;;;;;;5096331;28;20369;-86
2023/07/02 04:30:24;;;;;;;;;;;17.30;77.50;;;;;;5103561;28;19957;-86
2023/07/02 04:32:50;;;;;;;;;;;17.20;77.60;;;;;;5099098;28;19937;-86
2023/07/02 04:35:16;;;;;;;;;;;17.20;78.00;;;;;;5091981;28;19919;-85
2023/07/02 04:37:41;;;;;;;;;;;17.30;77.80;;;;;;5081206;28;19919;-85
2023/07/02 04:40:10;;;;;;;;;;;17.30;77.80;;;;;;5086150;28;19920;-86
2023/07/02 04:42:37;;;;;;;;;;;17.30;77.60;;;;;;5100052;28;19959;-84
2023/07/02 04:45:06;;;;;;;;;;;17.20;77.90;;;;;;5097175;28;19915;-86
2023/07/02 04:47:32;;;;;;;;;;;17.20;78.60;;;;;;5087383;28;19912;-86
2023/07/02 04:49:57;;;;;;;;;;;17.20;77.80;;;;;;5085580;28;19911;-86
2023/07/02 04:52:23;;;;;;;;;;;17.20;77.80;;;;;;5109643;27;19912;-86
2023/07/02 04:54:48;;;;;;;;;;;17.10;78.20;;;;;;5093715;28;19908;-86
2023/07/02 04:57:14;;;;;;;;;;;17.20;78.00;;;;;;5091400;28;19916;-86
2023/07/02 04:59:41;;;;;;;;;;;17.30;77.70;;;;;;5082514;28;21463;-86
2023/07/02 05:02:06;;;;;;;;;;;17.20;78.10;;;;;;5078575;28;20007;-86
2023/07/02 05:04:32;;;;;;;;;;;17.30;77.90;;;;;;5088506;28;20354;-86
2023/07/02 05:06:59;;;;;;;;;;;17.40;77.90;;;;;;5097791;28;19912;-86
2023/07/02 05:09:25;;;;;;;;;;;17.30;77.70;;;;;;5089031;28;19912;-86
2023/07/02 05:11:50;;;;;;;;;;;17.30;77.90;;;;;;5093574;28;20433;-86
2023/07/02 05:14:16;;;;;;;;;;;17.30;77.50;;;;;;5094691;28;19912;-86
2023/07/02 05:16:42;;;;;;;;;;;17.50;77.70;;;;;;5092824;28;19912;-86
2023/07/02 05:19:07;;;;;;;;;;;17.50;77.50;;;;;;5120084;27;19921;-86
2023/07/02 05:21:32;;;;;;;;;;;17.50;77.50;;;;;;5086370;28;20329;-86
2023/07/02 05:23:58;;;;;;;;;;;17.50;77.50;;;;;;5122495;27;19912;-85
2023/07/02 05:26:24;;;;;;;;;;;17.50;77.50;;;;;;5101334;28;19923;-85
2023/07/02 05:28:49;;;;;;;;;;;17.60;77.50;;;;;;5098444;28;20019;-86
2023/07/02 05:31:15;;;;;;;;;;;17.50;77.30;;;;;;5117565;28;20365;-86
2023/07/02 05:33:40;;;;;;;;;;;17.50;78.10;;;;;;5100002;27;20393;-85
2023/07/02 05:36:05;;;;;;;;;;;17.60;77.70;;;;;;5089288;27;19935;-86
2023/07/02 05:38:31;;;;;;;;;;;17.60;77.50;;;;;;5096410;27;19908;-86
2023/07/02 05:40:57;;;;;;;;;;;17.70;77.20;;;;;;5106180;28;19908;-86
2023/07/02 05:43:22;;;;;;;;;;;17.70;77.20;;;;;;5093865;28;19995;-86
2023/07/02 05:45:49;;;;;;;;;;;17.80;76.80;;;;;;5093269;28;20053;-87
2023/07/02 05:48:15;;;;;;;;;;;17.90;76.60;;;;;;5086888;28;19908;-85
2023/07/02 05:50:40;;;;;;;;;;;17.90;76.40;;;;;;5111498;28;19937;-85
2023/07/02 05:53:05;;;;;;;;;;;17.80;76.30;;;;;;5100729;28;20308;-85
2023/07/02 05:55:31;;;;;;;;;;;17.70;76.80;;;;;;5111208;28;19915;-85
2023/07/02 05:58:01;;;;;;;;;;;17.70;76.60;;;;;;5112405;28;19915;-86
2023/07/02 06:00:26;;;;;;;;;;;17.60;76.70;;;;;;5110095;28;19912;-86
2023/07/02 06:02:52;;;;;;;;;;;17.60;76.80;;;;;;5093870;28;19920;-84
2023/07/02 06:05:17;;;;;;;;;;;17.60;77.00;;;;;;5098842;28;19916;-85
2023/07/02 06:07:43;;;;;;;;;;;17.60;76.90;;;;;;5085605;28;19951;-84
2023/07/02 06:10:09;;;;;;;;;;;17.60;76.70;;;;;;5084216;28;19959;-86
2023/07/02 06:12:34;;;;;;;;;;;17.70;77.00;;;;;;5087103;28;19920;-85
2023/07/02 06:15:00;;;;;;;;;;;17.90;76.20;;;;;;5085176;28;20677;-87
2023/07/02 06:17:25;;;;;;;;;;;17.90;75.70;;;;;;5085333;28;19920;-86
2023/07/02 06:19:51;;;;;;;;;;;17.90;75.90;;;;;;5083670;28;19970;-85
2023/07/02 06:22:16;;;;;;;;;;;18.10;75.20;;;;;;5084580;28;19917;-84
2023/07/02 06:24:42;;;;;;;;;;;18.10;75.00;;;;;;5090110;28;20288;-86
2023/07/02 06:27:07;;;;;;;;;;;18.10;74.80;;;;;;5094307;28;19919;-85
2023/07/02 06:29:33;;;;;;;;;;;18.20;74.40;;;;;;5094016;28;20006;-86
2023/07/02 06:31:59;;;;;;;;;;;18.10;74.90;;;;;;5087333;28;19966;-85
2023/07/02 06:34:24;;;;;;;;;;;18.20;74.30;;;;;;5084947;28;20014;-85
2023/07/02 06:36:50;;;;;;;;;;;18.10;73.70;;;;;;5091783;28;19943;-85
2023/07/02 06:39:15;;;;;;;;;;;18.20;73.80;;;;;;5097209;28;20017;-85
2023/07/02 06:41:41;;;;;;;;;;;18.20;73.00;;;;;;5094029;28;19934;-86
2023/07/02 06:44:06;;;;;;;;;;;18.30;72.70;;;;;;5090158;28;19998;-86
2023/07/02 06:46:32;;;;;;;;;;;18.30;70.70;;;;;;5091678;28;19912;-86
2023/07/02 06:48:58;;;;;;;;;;;18.40;72.10;;;;;;5110711;28;19973;-84
2023/07/02 06:51:25;;;;;;;;;;;18.30;70.80;;;;;;5088118;28;19987;-83
2023/07/02 06:53:51;;;;;;;;;;;18.40;66.30;;;;;;5088962;28;19919;-85
2023/07/02 06:56:16;;;;;;;;;;;18.40;64.70;;;;;;5081999;28;19912;-86
2023/07/02 06:58:42;;;;;;;;;;;18.50;63.70;;;;;;5100560;28;20010;-85
2023/07/02 07:01:08;;;;;;;;;;;18.50;62.30;;;;;;5095549;28;19920;-85
2023/07/02 07:03:37;;;;;;;;;;;18.60;64.10;;;;;;5121014;28;19927;-88
2023/07/02 07:06:03;;;;;;;;;;;18.80;62.60;;;;;;5088525;28;19939;-85
2023/07/02 07:08:29;;;;;;;;;;;18.90;61.60;;;;;;5108189;28;20381;-86
2023/07/02 07:10:54;;;;;;;;;;;18.90;60.90;;;;;;5115117;28;19920;-86
2023/07/02 07:13:20;;;;;;;;;;;18.80;61.20;;;;;;5113325;28;20276;-86
2023/07/02 07:15:45;;;;;;;;;;;18.80;61.40;;;;;;5090532;28;19926;-86
2023/07/02 07:18:11;;;;;;;;;;;18.80;61.10;;;;;;5108665;28;19916;-86
2023/07/02 07:20:38;;;;;;;;;;;18.90;61.40;;;;;;5092429;28;19951;-86
2023/07/02 07:23:03;;;;;;;;;;;19.00;59.60;;;;;;5091649;28;19951;-86
2023/07/02 07:25:29;;;;;;;;;;;19.00;59.20;;;;;;5090089;28;20326;-87
2023/07/02 07:27:54;;;;;;;;;;;19.00;59.50;;;;;;5083473;28;19916;-87
2023/07/02 07:30:22;;;;;;;;;;;19.00;60.30;;;;;;5097842;28;20388;-86
2023/07/02 07:32:49;;;;;;;;;;;19.00;60.20;;;;;;5111977;28;19908;-87
2023/07/02 07:35:14;;;;;;;;;;;19.10;59.20;;;;;;5097572;28;19947;-86
2023/07/02 07:37:40;;;;;;;;;;;19.00;59.20;;;;;;5102486;27;19951;-87
2023/07/02 07:40:06;;;;;;;;;;;19.00;59.30;;;;;;5093385;28;19911;-87
2023/07/02 07:42:31;;;;;;;;;;;19.00;59.20;;;;;;5089917;28;19908;-86
2023/07/02 07:44:56;;;;;;;;;;;19.10;57.70;;;;;;5093913;28;20014;-86
2023/07/02 07:47:22;;;;;;;;;;;19.30;58.90;;;;;;5096548;28;20234;-86
2023/07/02 07:49:47;;;;;;;;;;;19.40;59.20;;;;;;5093439;28;20002;-87
2023/07/02 07:52:15;;;;;;;;;;;19.40;57.80;;;;;;5097534;28;20002;-86
2023/07/02 07:54:41;;;;;;;;;;;19.50;58.10;;;;;;5103182;27;20058;-85
2023/07/02 07:57:07;;;;;;;;;;;19.60;57.90;;;;;;5093629;28;20366;-86
2023/07/02 07:59:32;;;;;;;;;;;19.60;57.20;;;;;;5093686;28;19915;-87
2023/07/02 08:01:58;;;;;;;;;;;19.70;56.40;;;;;;5096530;28;19908;-87
2023/07/02 08:04:24;;;;;;;;;;;19.70;56.50;;;;;;5092541;28;19931;-87
2023/07/02 08:06:49;;;;;;;;;;;19.50;56.80;;;;;;5089205;28;20490;-86
2023/07/02 08:09:15;;;;;;;;;;;19.60;56.90;;;;;;5096748;28;19931;-86
2023/07/02 08:11:40;;;;;;;;;;;19.60;56.50;;;;;;5113861;28;20400;-86
2023/07/02 08:14:06;;;;;;;;;;;19.60;56.70;;;;;;5106316;28;19916;-87
2023/07/02 08:16:31;;;;;;;;;;;19.60;56.40;;;;;;5092565;28;19950;-85
2023/07/02 08:18:56;;;;;;;;;;;19.50;53.70;;;;;;5118948;28;19931;-86
2023/07/02 08:21:22;;;;;;;;;;;19.50;54.60;;;;;;5092318;28;19951;-87
2023/07/02 08:23:47;;;;;;;;;;;19.40;53.70;;;;;;5101593;28;19912;-86
2023/07/02 08:26:14;;;;;;;;;;;19.40;54.10;;;;;;5113286;27;20369;-86
2023/07/02 08:28:39;;;;;;;;;;;19.30;54.20;;;;;;5106770;28;19915;-86
2023/07/02 08:31:05;;;;;;;;;;;19.40;54.10;;;;;;5094327;28;19922;-85
2023/07/02 08:33:30;;;;;;;;;;;19.40;53.70;;;;;;5108317;28;19920;-84
2023/07/02 08:35:57;;;;;;;;;;;19.50;54.10;;;;;;5117963;28;19908;-83
2023/07/02 08:38:22;;;;;;;;;;;19.50;52.90;;;;;;5099589;28;20320;-84
2023/07/02 08:40:51;;;;;;;;;;;19.30;52.50;;;;;;5106487;28;19923;-87
2023/07/02 08:43:17;;;;;;;;;;;19.40;54.10;;;;;;5085901;28;19938;-86
2023/07/02 08:45:42;;;;;;;;;;;19.60;53.20;;;;;;5096974;27;19920;-87
2023/07/02 08:48:08;;;;;;;;;;;19.60;52.30;;;;;;5082380;28;19912;-87
2023/07/02 08:50:33;;;;;;;;;;;19.70;52.80;;;;;;5085709;28;19916;-87
2023/07/02 08:52:59;;;;;;;;;;;19.80;53.00;;;;;;5098662;27;19927;-86
2023/07/02 08:55:25;;;;;;;;;;;19.80;53.70;;;;;;5084710;28;19912;-85
2023/07/02 08:57:52;;;;;;;;;;;19.80;52.50;;;;;;5121937;27;19911;-85
2023/07/02 09:00:18;;;;;;;;;;;19.80;51.60;;;;;;5083192;28;20335;-85
2023/07/02 09:02:44;;;;;;;;;;;19.80;51.80;;;;;;5080042;28;19912;-86
2023/07/02 09:05:10;;;;;;;;;;;19.80;50.90;;;;;;5091216;28;19916;-86
2023/07/02 09:07:48;;;;;;;;;;;19.90;50.30;;;;;;5098305;28;19916;-85
2023/07/02 09:10:27;;;;;;;;;;;20.10;50.60;;;;;;5075453;28;19912;-85
2023/07/02 09:13:05;;;;;;;;;;;20.30;49.70;;;;;;5095297;27;20353;-85
2023/07/02 09:15:37;;;;;;;;;;;20.30;50.20;;;;;;5099885;28;19923;-87
2023/07/02 09:18:03;;;;;;;;;;;20.30;49.10;;;;;;5100174;27;19923;-86
2023/07/02 09:20:34;;;;;;;;;;;20.20;49.70;;;;;;5124370;27;19912;-85
2023/07/02 09:23:00;;;;;;;;;;;20.20;50.10;;;;;;5083494;28;19916;-87
2023/07/02 09:25:38;;;;;;;;;;;20.20;50.10;;;;;;5099977;28;19968;-85
2023/07/02 09:28:19;;;;;;;;;;;20.10;50.30;;;;;;5097525;28;20016;-86
2023/07/02 09:30:49;;;;;;;;;;;20.10;50.30;;;;;;5113550;27;19922;-87
2023/07/02 09:33:15;;;;;;;;;;;20.00;50.10;;;;;;5093728;27;19920;-86
2023/07/02 09:35:40;;;;;;;;;;;20.00;50.60;;;;;;5094341;27;19916;-84
2023/07/02 09:38:06;;;;;;;;;;;20.10;50.00;;;;;;5102704;27;19918;-85
2023/07/02 09:40:33;;;;;;;;;;;20.10;48.70;;;;;;5095517;27;19912;-85
2023/07/02 09:43:02;;;;;;;;;;;20.10;48.60;;;;;;5095397;27;20373;-86
2023/07/02 09:45:27;;;;;;;;;;;20.10;47.70;;;;;;5083377;28;19969;-85
2023/07/02 09:47:54;;;;;;;;;;;20.00;48.40;;;;;;5088617;28;19912;-85
2023/07/02 09:50:20;;;;;;;;;;;19.90;48.30;;;;;;5119672;27;19919;-84
2023/07/02 09:52:46;;;;;;;;;;;19.90;48.80;;;;;;5095688;27;20975;-84
2023/07/02 09:55:11;;;;;;;;;;;20.00;49.10;;;;;;5085744;27;20344;-85
2023/07/02 09:57:38;;;;;;;;;;;20.20;49.20;;;;;;5104440;27;20266;-86
2023/07/02 10:00:04;;;;;;;;;;;20.40;48.30;;;;;;5079710;28;19919;-83
2023/07/02 10:02:30;;;;;;;;;;;20.50;48.00;;;;;;5082652;28;19912;-85
2023/07/02 10:04:56;;;;;;;;;;;20.60;47.10;;;;;;5082306;28;19922;-82
2023/07/02 10:07:28;;;;;;;;;;;20.60;47.50;;;;;;5126831;27;19919;-84
2023/07/02 10:09:54;;;;;;;;;;;20.50;47.80;;;;;;5084329;28;19924;-82
2023/07/02 10:12:23;;;;;;;;;;;20.50;47.70;;;;;;5103615;28;19919;-82
2023/07/02 10:14:50;;;;;;;;;;;20.50;48.50;;;;;;5101485;28;19912;-84
2023/07/02 10:17:34;;;;;;;;;;;20.50;48.20;;;;;;5086381;27;19919;-84
2023/07/02 10:20:07;;;;;;;;;;;20.50;48.40;;;;;;5096083;27;19951;-83
2023/07/02 10:22:47;;;;;;;;;;;20.50;49.10;;;;;;5099589;28;20403;-87
2023/07/02 10:25:23;;;;;;;;;;;20.60;48.70;;;;;;5100315;28;19919;-83
2023/07/02 10:27:48;;;;;;;;;;;20.50;49.00;;;;;;5096443;28;19919;-87
2023/07/02 10:30:14;;;;;;;;;;;20.50;48.70;;;;;;5078450;27;19961;-83
2023/07/02 10:32:39;;;;;;;;;;;20.50;48.90;;;;;;5099049;27;19920;-85
2023/07/02 10:35:15;;;;;;;;;;;20.60;48.50;;;;;;5092151;28;20266;-86
2023/07/02 10:37:41;;;;;;;;;;;20.60;48.80;;;;;;5080535;28;19962;-83
2023/07/02 10:40:07;;;;;;;;;;;20.50;48.20;;;;;;5080598;28;19916;-85
2023/07/02 10:42:33;;;;;;;;;;;20.50;49.60;;;;;;5099923;28;20002;-84
2023/07/02 10:44:59;;;;;;;;;;;20.50;49.40;;;;;;5096489;28;20006;-83
2023/07/02 10:47:24;;;;;;;;;;;20.50;47.80;;;;;;5100016;28;20394;-84
2023/07/02 10:49:50;;;;;;;;;;;20.50;47.40;;;;;;5102168;28;19923;-85
2023/07/02 10:52:16;;;;;;;;;;;20.60;47.20;;;;;;5083713;28;20373;-85
2023/07/02 10:54:44;;;;;;;;;;;20.50;46.90;;;;;;5124205;28;19965;-86
2023/07/02 10:57:12;;;;;;;;;;;20.50;47.30;;;;;;5112357;28;20026;-86
2023/07/02 10:59:38;;;;;;;;;;;20.40;47.10;;;;;;5093081;28;20499;-85
2023/07/02 11:02:07;;;;;;;;;;;20.50;47.50;;;;;;5092102;28;20006;-85
2023/07/02 11:04:37;;;;;;;;;;;20.40;47.60;;;;;;5104784;28;19924;-86
2023/07/02 11:07:05;;;;;;;;;;;20.50;47.20;;;;;;5103489;28;19922;-87
2023/07/02 11:09:32;;;;;;;;;;;20.50;48.60;;;;;;5095374;28;19933;-87
2023/07/02 11:11:58;;;;;;;;;;;20.60;48.20;;;;;;5095746;28;19923;-86
2023/07/02 11:14:28;;;;;;;;;;;20.60;47.00;;;;;;5101105;28;20386;-84
2023/07/02 11:16:59;;;;;;;;;;;20.60;47.70;;;;;;5131146;27;19926;-85
2023/07/02 11:19:25;;;;;;;;;;;20.70;47.20;;;;;;5099759;28;20292;-86
2023/07/02 11:21:51;;;;;;;;;;;20.90;46.90;;;;;;5115641;28;20106;-84
2023/07/02 11:24:26;;;;;;;;;;;21.10;46.70;;;;;;5115304;27;20379;-86
2023/07/02 11:26:51;;;;;;;;;;;21.10;46.20;;;;;;5112424;28;19912;-85
2023/07/02 11:29:20;;;;;;;;;;;21.20;47.00;;;;;;5113695;27;19915;-85
2023/07/02 11:31:45;;;;;;;;;;;21.20;46.50;;;;;;5118928;27;19919;-86
2023/07/02 11:34:18;;;;;;;;;;;21.30;46.60;;;;;;5114074;28;19908;-84
2023/07/02 11:36:43;;;;;;;;;;;21.30;46.70;;;;;;5104018;28;20365;-84
2023/07/02 11:39:09;;;;;;;;;;;21.20;45.20;;;;;;5112258;28;19958;-85
2023/07/02 11:41:38;;;;;;;;;;;21.00;46.00;;;;;;5129017;27;19941;-84
2023/07/02 11:44:03;;;;;;;;;;;21.00;46.00;;;;;;5149841;27;19907;-87
2023/07/02 11:46:29;;;;;;;;;;;21.00;45.70;;;;;;5128652;27;19925;-86
2023/07/02 11:48:54;;;;;;;;;;;20.90;45.90;;;;;;5119841;27;19999;-85
2023/07/02 11:51:21;;;;;;;;;;;20.70;46.00;;;;;;5112807;27;19918;-85
2023/07/02 11:53:46;;;;;;;;;;;20.80;46.60;;;;;;5107196;28;20039;-85
2023/07/02 11:56:13;;;;;;;;;;;20.80;46.70;;;;;;5101684;28;20026;-85
2023/07/02 11:58:41;;;;;;;;;;;20.90;47.10;;;;;;5098815;28;19912;-84
2023/07/02 12:01:07;;;;;;;;;;;20.90;47.70;;;;;;5133080;27;20437;-83
2023/07/02 12:03:32;;;;;;;;;;;21.00;47.60;;;;;;5101126;27;19915;-84
2023/07/02 12:05:58;;;;;;;;;;;21.10;48.00;;;;;;5122156;27;20399;-83
2023/07/02 12:08:23;;;;;;;;;;;21.00;45.50;;;;;;5107746;28;19928;-86
2023/07/02 12:10:49;;;;;;;;;;;20.90;46.60;;;;;;5121406;27;20542;-85
2023/07/02 12:13:15;;;;;;;;;;;21.10;47.10;;;;;;5114608;27;19923;-85
2023/07/02 12:15:40;;;;;;;;;;;21.30;46.90;;;;;;5097764;28;19968;-85
2023/07/02 12:18:06;;;;;;;;;;;21.60;43.80;;;;;;5108486;28;19916;-84
2023/07/02 12:20:31;;;;;;;;;;;21.90;44.30;;;;;;5092626;28;19985;-85
2023/07/02 12:22:57;;;;;;;;;;;21.90;43.80;;;;;;5110257;28;19973;-84
2023/07/02 12:25:22;;;;;;;;;;;21.60;44.00;;;;;;5110509;27;19919;-84
2023/07/02 12:27:48;;;;;;;;;;;21.70;44.40;;;;;;5094566;27;20348;-85
2023/07/02 12:30:17;;;;;;;;;;;22.00;43.40;;;;;;5121549;27;19912;-85
2023/07/02 12:32:43;;;;;;;;;;;22.10;42.90;;;;;;5115416;27;19911;-84
2023/07/02 12:35:08;;;;;;;;;;;22.10;42.60;;;;;;5092975;28;19999;-85
2023/07/02 12:37:34;;;;;;;;;;;22.10;42.30;;;;;;5089146;27;20286;-86
2023/07/02 12:40:00;;;;;;;;;;;22.00;42.50;;;;;;5124203;27;19969;-87
2023/07/02 12:42:25;;;;;;;;;;;21.90;42.50;;;;;;5104015;27;20361;-86
2023/07/02 12:44:51;;;;;;;;;;;21.80;42.90;;;;;;5120087;27;19923;-85
2023/07/02 12:47:16;;;;;;;;;;;21.70;43.10;;;;;;5102821;27;20409;-87
2023/07/02 12:49:42;;;;;;;;;;;21.60;43.20;;;;;;5099818;27;19923;-86
2023/07/02 12:52:07;;;;;;;;;;;21.70;43.60;;;;;;5100111;27;19920;-86
2023/07/02 12:54:33;;;;;;;;;;;21.70;43.80;;;;;;5102691;27;20399;-85
2023/07/02 12:56:58;;;;;;;;;;;21.60;42.90;;;;;;5114043;27;20004;-86
2023/07/02 12:59:23;;;;;;;;;;;21.40;43.20;;;;;;5117708;27;19923;-86
2023/07/02 13:01:54;;;;;;;;;;;21.60;44.40;;;;;;5104914;27;19915;-86
2023/07/02 13:04:20;;;;;;;;;;;22.00;43.70;;;;;;5103502;27;20574;-85
2023/07/02 13:06:46;;;;;;;;;;;22.00;43.20;;;;;;5105171;27;19927;-87
2023/07/02 13:09:11;;;;;;;;;;;22.20;42.40;;;;;;5101917;28;19915;-85
2023/07/02 13:11:38;;;;;;;;;;;22.10;43.50;;;;;;5090255;28;19935;-86
2023/07/02 13:14:03;;;;;;;;;;;22.10;43.10;;;;;;5101273;27;19938;-87
2023/07/02 13:16:29;;;;;;;;;;;22.00;43.30;;;;;;5121207;27;20283;-86
2023/07/02 13:18:56;;;;;;;;;;;21.90;43.70;;;;;;5129473;27;19934;-85
2023/07/02 13:21:22;;;;;;;;;;;21.70;44.30;;;;;;5125382;27;19911;-83
2023/07/02 13:23:47;;;;;;;;;;;21.50;43.50;;;;;;5107085;27;19993;-86
2023/07/02 13:26:13;;;;;;;;;;;21.50;43.90;;;;;;5096140;27;20377;-85
2023/07/02 13:28:38;;;;;;;;;;;21.60;44.20;;;;;;5115747;27;19920;-86
2023/07/02 13:31:04;;;;;;;;;;;21.80;44.20;;;;;;5092021;28;19924;-86
2023/07/02 13:33:30;;;;;;;;;;;22.10;44.90;;;;;;5090505;28;20056;-84
2023/07/02 13:35:56;;;;;;;;;;;22.30;44.10;;;;;;5086642;28;19916;-86
2023/07/02 13:38:21;;;;;;;;;;;22.50;43.10;;;;;;5109654;27;20014;-86
2023/07/02 13:40:47;;;;;;;;;;;22.60;42.90;;;;;;5089478;28;19916;-87
2023/07/02 13:43:13;;;;;;;;;;;22.50;42.20;;;;;;5097153;28;20392;-85
2023/07/02 13:45:38;;;;;;;;;;;22.50;43.50;;;;;;5101474;27;20466;-85
2023/07/02 13:48:05;;;;;;;;;;;22.50;43.20;;;;;;5113658;27;19960;-86
2023/07/02 13:50:30;;;;;;;;;;;22.50;43.30;;;;;;5122939;27;19911;-86
2023/07/02 13:52:56;;;;;;;;;;;22.30;43.30;;;;;;5097697;27;20441;-86
2023/07/02 13:55:30;;;;;;;;;;;22.20;44.30;;;;;;5095350;27;19949;-87
2023/07/02 13:57:57;;;;;;;;;;;22.50;44.10;;;;;;5098892;27;19912;-86
2023/07/02 14:00:23;;;;;;;;;;;22.70;43.80;;;;;;5119732;27;19911;-86
2023/07/02 14:02:48;;;;;;;;;;;22.80;44.20;;;;;;5113184;27;20057;-84
2023/07/02 14:05:13;;;;;;;;;;;22.60;43.10;;;;;;5120249;27;19922;-85
2023/07/02 14:07:39;;;;;;;;;;;22.60;43.70;;;;;;5101684;27;20426;-84
2023/07/02 14:10:07;;;;;;;;;;;22.50;44.40;;;;;;5111896;28;20337;-82
2023/07/02 14:12:32;;;;;;;;;;;22.30;44.50;;;;;;5112244;28;19934;-83
2023/07/02 14:14:58;;;;;;;;;;;22.40;44.70;;;;;;5104764;28;19912;-84